Time;durP1;ratioP1;P1;durP2;ratioP2;P2;SDS_P1;SDS_P2;PMS_P1;PMS_P2;Temp;Humidity;BMP_temperature;BMP_pressure;BME280_temperature;BME280_humidity;BME280_pressure;Samples;Min_cycle;Max_cycle;Signal;HPM_P1;HPM_P2
2022/12/31 00:01:31;;;;;;;51.57;29.40;;;5.70;99.90;;;;;;5093252;27;20212;-82
2022/12/31 00:04:20;;;;;;;49.40;29.53;;;5.70;99.90;;;;;;5098621;27;20228;-82
2022/12/31 00:07:09;;;;;;;51.03;30.47;;;5.80;99.90;;;;;;5094741;28;20734;-82
2022/12/31 00:09:58;;;;;;;52.27;29.43;;;5.90;99.90;;;;;;5095555;28;20223;-82
2022/12/31 00:12:46;;;;;;;50.87;29.90;;;5.80;99.90;;;;;;5095029;27;20231;-82
2022/12/31 00:15:37;;;;;;;48.77;29.20;;;5.80;99.90;;;;;;5095716;28;20248;-82
2022/12/31 00:18:26;;;;;;;50.17;30.67;;;5.90;99.90;;;;;;5092864;28;20293;-82
2022/12/31 00:21:16;;;;;;;50.50;30.10;;;5.90;99.90;;;;;;5095682;27;20236;-83
2022/12/31 00:24:06;;;;;;;51.77;31.00;;;5.80;99.90;;;;;;5094520;28;20219;-83
2022/12/31 00:26:55;;;;;;;51.77;31.13;;;5.90;99.90;;;;;;5103562;28;20227;-82
2022/12/31 00:29:44;;;;;;;49.90;30.47;;;5.80;99.90;;;;;;5109948;27;20900;-83
2022/12/31 00:32:34;;;;;;;49.63;29.73;;;5.80;99.90;;;;;;5097587;28;20944;-82
2022/12/31 00:35:23;;;;;;;50.23;30.47;;;5.70;99.90;;;;;;5097485;27;20724;-83
2022/12/31 00:38:12;;;;;;;53.57;30.87;;;5.80;99.90;;;;;;5095134;27;20290;-83
2022/12/31 00:41:00;;;;;;;52.93;29.53;;;5.70;99.90;;;;;;5102626;27;20241;-82
2022/12/31 00:43:49;;;;;;;52.53;29.43;;;5.70;99.90;;;;;;5101076;27;20227;-84
2022/12/31 00:46:38;;;;;;;46.87;29.60;;;5.70;99.90;;;;;;5097775;27;20880;-82
2022/12/31 00:49:27;;;;;;;45.80;28.90;;;5.70;99.90;;;;;;5116388;27;20222;-81
2022/12/31 00:52:17;;;;;;;51.60;28.90;;;5.70;99.90;;;;;;5097467;27;20219;-81
2022/12/31 00:55:07;;;;;;;53.00;30.23;;;5.60;99.90;;;;;;5114156;27;20272;-81
2022/12/31 00:57:55;;;;;;;45.90;28.63;;;5.70;99.90;;;;;;5097751;28;20217;-79
2022/12/31 01:00:44;;;;;;;46.33;29.07;;;5.60;99.90;;;;;;5130733;27;20227;-81
2022/12/31 01:03:33;;;;;;;50.43;27.80;;;5.70;99.90;;;;;;5099186;27;20222;-81
2022/12/31 01:06:23;;;;;;;44.33;27.40;;;5.70;99.90;;;;;;5102376;27;20713;-81
2022/12/31 01:09:14;;;;;;;47.13;28.10;;;5.70;99.90;;;;;;5092739;27;20740;-81
2022/12/31 01:12:02;;;;;;;43.77;27.07;;;5.70;99.90;;;;;;5113342;27;20239;-81
2022/12/31 01:14:51;;;;;;;45.10;27.57;;;5.80;99.90;;;;;;5102619;27;20272;-81
2022/12/31 01:17:40;;;;;;;45.70;27.40;;;5.70;99.90;;;;;;5092040;27;20371;-82
2022/12/31 01:20:29;;;;;;;43.33;26.73;;;5.80;99.90;;;;;;5086882;28;20222;-83
2022/12/31 01:23:23;;;;;;;42.77;26.10;;;5.70;99.90;;;;;;5097052;27;20226;-82
2022/12/31 01:26:14;;;;;;;45.37;26.27;;;5.80;99.90;;;;;;5094631;28;20218;-84
2022/12/31 01:29:03;;;;;;;39.00;24.77;;;5.70;99.90;;;;;;5097645;28;20226;-82
2022/12/31 01:31:51;;;;;;;44.40;25.23;;;5.70;99.90;;;;;;5102014;27;20780;-81
2022/12/31 01:34:40;;;;;;;44.37;25.50;;;5.60;99.90;;;;;;5089837;28;20234;-82
2022/12/31 01:37:29;;;;;;;43.27;25.10;;;5.70;99.90;;;;;;5085955;27;20740;-82
2022/12/31 01:40:19;;;;;;;39.63;24.73;;;5.70;99.90;;;;;;5101687;28;20219;-82
2022/12/31 01:43:15;;;;;;;46.67;25.57;;;5.70;99.90;;;;;;5098849;27;20219;-83
2022/12/31 01:46:04;;;;;;;41.30;24.90;;;5.80;99.90;;;;;;5098077;28;20326;-82
2022/12/31 01:48:56;;;;;;;37.97;24.00;;;5.80;99.90;;;;;;5097270;28;20289;-82
2022/12/31 01:51:48;;;;;;;42.27;26.60;;;5.80;99.90;;;;;;5090208;28;20968;-82
2022/12/31 01:54:41;;;;;;;40.43;24.63;;;5.80;99.90;;;;;;5096609;27;20219;-83
2022/12/31 01:57:32;;;;;;;37.83;23.93;;;5.80;99.90;;;;;;5093079;27;20221;-83
2022/12/31 02:00:21;;;;;;;40.30;25.53;;;5.80;99.90;;;;;;5103149;27;20697;-83
2022/12/31 02:03:10;;;;;;;37.83;23.53;;;5.80;99.90;;;;;;5100009;27;20214;-82
2022/12/31 02:06:03;;;;;;;35.90;22.87;;;5.90;99.90;;;;;;5090741;28;20230;-82
2022/12/31 02:08:52;;;;;;;36.90;22.17;;;5.90;99.90;;;;;;5097441;27;20235;-83
2022/12/31 02:11:41;;;;;;;37.73;23.23;;;6.00;99.90;;;;;;5105683;27;20226;-83
2022/12/31 02:14:36;;;;;;;34.37;21.53;;;6.00;99.90;;;;;;5100223;27;20226;-83
2022/12/31 02:17:32;;;;;;;38.53;22.20;;;6.00;99.90;;;;;;5103619;27;20211;-82
2022/12/31 02:21:05;;;;;;;36.47;21.30;;;6.10;99.90;;;;;;5104175;27;20271;-82
2022/12/31 02:24:27;;;;;;;35.73;22.17;;;6.10;99.90;;;;;;5102011;28;20301;-83
2022/12/31 02:27:29;;;;;;;34.47;21.37;;;6.10;99.90;;;;;;5096845;28;20223;-81
2022/12/31 02:30:21;;;;;;;31.80;20.17;;;6.20;99.90;;;;;;5096053;27;20214;-83
2022/12/31 02:33:18;;;;;;;31.37;20.17;;;6.10;99.90;;;;;;5094977;28;20714;-84
2022/12/31 02:36:12;;;;;;;31.07;20.13;;;6.10;99.90;;;;;;5124517;27;20268;-81
2022/12/31 02:39:04;;;;;;;32.17;20.00;;;6.10;99.90;;;;;;5089791;28;20818;-81
2022/12/31 02:41:53;;;;;;;29.47;19.43;;;6.10;99.90;;;;;;5105939;27;20697;-81
2022/12/31 02:44:43;;;;;;;28.33;18.70;;;6.20;99.90;;;;;;5089369;27;20219;-80
2022/12/31 02:47:45;;;;;;;29.13;17.53;;;6.20;99.90;;;;;;5095954;27;20223;-81
2022/12/31 02:50:54;;;;;;;29.43;17.57;;;6.30;99.90;;;;;;5094650;28;20233;-81
2022/12/31 02:54:19;;;;;;;27.53;17.43;;;6.30;99.90;;;;;;5098698;27;20223;-81
2022/12/31 02:57:15;;;;;;;24.97;17.10;;;6.30;99.90;;;;;;5102207;27;20268;-80
2022/12/31 03:03:14;;;;;;;26.10;16.57;;;6.40;99.90;;;;;;5089546;28;20247;-79
2022/12/31 03:06:04;;;;;;;25.67;16.70;;;6.40;99.90;;;;;;5099358;28;20223;-81
2022/12/31 03:15:18;;;;;;;26.07;17.10;;;6.50;99.90;;;;;;5093883;28;20217;-82
2022/12/31 03:18:09;;;;;;;25.23;17.23;;;6.40;99.90;;;;;;5088660;28;20880;-82
2022/12/31 03:27:12;;;;;;;29.30;17.30;;;6.40;99.90;;;;;;5096662;28;20229;-82
2022/12/31 03:30:01;;;;;;;26.57;16.87;;;6.50;99.90;;;;;;5096352;27;20223;-82
2022/12/31 03:32:51;;;;;;;28.37;17.27;;;6.50;99.90;;;;;;5098105;28;20235;-82
2022/12/31 03:35:44;;;;;;;28.07;16.43;;;6.50;99.90;;;;;;5077218;27;20835;-80
2022/12/31 03:38:34;;;;;;;26.23;16.20;;;6.50;99.90;;;;;;5099684;28;20269;-81
2022/12/31 03:41:23;;;;;;;27.83;15.97;;;6.60;99.90;;;;;;5089552;28;20241;-81
2022/12/31 03:44:12;;;;;;;23.40;15.17;;;6.50;99.90;;;;;;5106295;27;20219;-81
2022/12/31 03:47:01;;;;;;;26.37;16.00;;;6.60;99.90;;;;;;5101586;27;20512;-80
2022/12/31 03:49:50;;;;;;;23.50;15.77;;;6.60;99.90;;;;;;5072612;28;20811;-82
2022/12/31 03:52:39;;;;;;;26.03;16.27;;;6.70;99.90;;;;;;5088960;28;20236;-81
2022/12/31 03:55:29;;;;;;;24.63;15.77;;;6.70;99.90;;;;;;5098933;28;20218;-81
2022/12/31 03:58:18;;;;;;;23.80;15.53;;;6.70;99.90;;;;;;5085244;28;20302;-82
2022/12/31 04:01:07;;;;;;;24.27;15.37;;;6.70;99.90;;;;;;5098522;28;20770;-81
2022/12/31 04:03:56;;;;;;;24.87;16.10;;;6.70;99.90;;;;;;5088608;28;20218;-82
2022/12/31 04:06:44;;;;;;;25.43;15.73;;;6.70;99.90;;;;;;5105599;28;20235;-81
2022/12/31 04:09:33;;;;;;;22.73;15.13;;;6.70;99.90;;;;;;5077866;28;20244;-80
2022/12/31 04:12:24;;;;;;;24.83;15.50;;;6.80;99.90;;;;;;5066205;28;20224;-82
2022/12/31 04:15:17;;;;;;;25.43;15.17;;;6.80;99.90;;;;;;5083565;28;20275;-81
2022/12/31 04:18:06;;;;;;;23.73;15.50;;;6.80;99.90;;;;;;5082369;28;20706;-81
2022/12/31 04:20:54;;;;;;;23.17;14.17;;;6.80;99.90;;;;;;5089119;28;20320;-81
2022/12/31 04:23:47;;;;;;;24.23;15.20;;;6.80;99.90;;;;;;5104212;27;20223;-81
2022/12/31 04:26:36;;;;;;;22.03;14.67;;;6.90;99.90;;;;;;5099344;27;20710;-81
2022/12/31 04:29:27;;;;;;;23.83;14.83;;;7.00;99.90;;;;;;5091532;27;20219;-81
2022/12/31 04:32:16;;;;;;;23.63;14.30;;;7.00;99.90;;;;;;5100855;27;20231;-81
2022/12/31 04:35:06;;;;;;;26.07;15.17;;;7.00;99.90;;;;;;5094252;28;20219;-82
2022/12/31 04:37:54;;;;;;;24.13;15.07;;;7.00;99.90;;;;;;5117789;27;20223;-81
2022/12/31 04:43:50;;;;;;;24.03;14.77;;;7.00;99.90;;;;;;5087999;27;20356;-82
2022/12/31 04:46:40;;;;;;;25.03;14.93;;;7.00;99.90;;;;;;5102291;27;20350;-81
2022/12/31 04:49:28;;;;;;;21.50;14.63;;;7.00;99.90;;;;;;5103742;27;20227;-82
2022/12/31 04:52:17;;;;;;;22.77;15.03;;;7.00;99.90;;;;;;5099832;27;20730;-81
2022/12/31 04:55:07;;;;;;;22.93;14.33;;;7.00;99.90;;;;;;5095811;28;20234;-82
2022/12/31 04:57:55;;;;;;;22.37;15.03;;;7.00;99.90;;;;;;5102552;28;20230;-81
2022/12/31 05:00:48;;;;;;;24.90;14.90;;;7.10;99.90;;;;;;5085715;27;20606;-82
2022/12/31 05:03:39;;;;;;;29.07;15.63;;;7.10;99.90;;;;;;5086219;28;20221;-81
2022/12/31 05:06:27;;;;;;;25.30;14.67;;;7.20;99.90;;;;;;5089223;27;20650;-81
2022/12/31 05:09:16;;;;;;;23.90;14.27;;;7.20;99.90;;;;;;5106060;27;20228;-81
2022/12/31 05:12:06;;;;;;;22.87;14.07;;;7.30;99.90;;;;;;5095630;28;20211;-82
2022/12/31 05:14:54;;;;;;;22.43;14.50;;;7.20;99.90;;;;;;5093776;28;20275;-80
2022/12/31 05:17:43;;;;;;;23.10;15.17;;;7.30;99.90;;;;;;5088915;28;20968;-81
2022/12/31 05:20:33;;;;;;;22.60;14.20;;;7.30;99.90;;;;;;5101266;27;20232;-81
2022/12/31 05:23:22;;;;;;;23.70;15.10;;;7.30;99.90;;;;;;5094397;27;20235;-81
2022/12/31 05:26:11;;;;;;;24.10;15.30;;;7.30;99.90;;;;;;5102576;27;20235;-80
2022/12/31 05:29:00;;;;;;;25.23;15.83;;;7.40;99.90;;;;;;5103203;28;20291;-80
2022/12/31 05:31:49;;;;;;;25.40;15.80;;;7.30;99.90;;;;;;5102493;27;20247;-81
2022/12/31 05:34:37;;;;;;;23.07;15.33;;;7.40;99.90;;;;;;5096429;28;20223;-81
2022/12/31 05:37:29;;;;;;;25.63;15.43;;;7.40;99.90;;;;;;5122473;27;20226;-82
2022/12/31 05:40:18;;;;;;;25.33;16.10;;;7.40;99.90;;;;;;5101078;27;20221;-81
2022/12/31 05:43:07;;;;;;;26.20;16.10;;;7.40;99.90;;;;;;5103160;27;20223;-82
2022/12/31 05:45:55;;;;;;;26.87;16.07;;;7.50;99.90;;;;;;5100014;28;20230;-82
2022/12/31 05:48:44;;;;;;;24.37;14.90;;;7.50;99.90;;;;;;5098207;27;20242;-82
2022/12/31 05:51:33;;;;;;;27.70;16.63;;;7.60;99.90;;;;;;5099823;28;20233;-81
2022/12/31 05:54:23;;;;;;;24.03;15.90;;;7.60;99.90;;;;;;5092202;28;20250;-81
2022/12/31 05:57:12;;;;;;;26.27;16.77;;;7.60;99.90;;;;;;5102117;27;20225;-81
2022/12/31 06:00:01;;;;;;;25.73;15.63;;;7.60;99.90;;;;;;5103483;28;20223;-81
2022/12/31 06:03:00;;;;;;;31.93;16.53;;;7.70;99.90;;;;;;5108864;27;20229;-81
2022/12/31 06:05:49;;;;;;;23.60;15.73;;;7.70;99.90;;;;;;5101178;27;20265;-81
2022/12/31 06:08:38;;;;;;;23.97;15.33;;;7.80;99.90;;;;;;5103087;27;20226;-81
2022/12/31 06:11:29;;;;;;;24.77;15.50;;;7.90;99.90;;;;;;5095336;28;20211;-81
2022/12/31 06:14:17;;;;;;;24.23;15.73;;;7.90;99.90;;;;;;5101077;28;20222;-79
2022/12/31 06:17:06;;;;;;;23.97;15.33;;;7.90;99.90;;;;;;5090973;28;20222;-81
2022/12/31 06:19:55;;;;;;;23.17;15.23;;;7.90;99.90;;;;;;5097948;28;20284;-81
2022/12/31 06:22:44;;;;;;;26.17;16.40;;;8.00;99.90;;;;;;5094336;27;20259;-82
2022/12/31 06:25:34;;;;;;;25.27;15.67;;;8.00;99.90;;;;;;5119772;27;20302;-81
2022/12/31 06:28:24;;;;;;;23.33;15.33;;;8.10;99.90;;;;;;5099825;27;20238;-81
2022/12/31 06:31:14;;;;;;;26.33;15.37;;;8.10;99.90;;;;;;5101301;27;20226;-82
2022/12/31 06:34:03;;;;;;;25.33;15.10;;;8.10;99.90;;;;;;5092417;28;20226;-81
2022/12/31 06:36:52;;;;;;;25.03;15.20;;;8.20;99.90;;;;;;5114711;27;20367;-81
2022/12/31 06:39:41;;;;;;;25.20;15.23;;;8.20;99.90;;;;;;5101355;27;20252;-82
2022/12/31 06:42:30;;;;;;;24.50;15.63;;;8.20;99.90;;;;;;5098257;27;20213;-81
2022/12/31 06:45:20;;;;;;;23.63;14.87;;;8.20;99.90;;;;;;5105104;27;20747;-81
2022/12/31 06:48:09;;;;;;;21.90;14.90;;;8.30;99.90;;;;;;5099846;28;20215;-81
2022/12/31 06:51:04;;;;;;;22.13;15.40;;;8.30;99.90;;;;;;5102843;27;20724;-84
2022/12/31 06:53:52;;;;;;;25.73;15.27;;;8.30;99.90;;;;;;5121403;27;20241;-81
2022/12/31 06:56:42;;;;;;;23.20;14.57;;;8.30;99.90;;;;;;5089804;27;20779;-81
2022/12/31 06:59:31;;;;;;;27.30;15.67;;;8.30;99.90;;;;;;5099979;27;20237;-81
2022/12/31 07:02:36;;;;;;;23.13;14.90;;;8.30;99.90;;;;;;5101882;27;20223;-81
2022/12/31 07:05:34;;;;;;;21.27;14.07;;;8.40;99.90;;;;;;5102436;27;20695;-81
2022/12/31 07:08:44;;;;;;;22.97;14.37;;;8.40;99.90;;;;;;5104968;28;20719;-81
2022/12/31 07:11:39;;;;;;;22.90;14.97;;;8.50;99.90;;;;;;5095694;27;20218;-81
2022/12/31 07:14:36;;;;;;;22.57;14.40;;;8.50;99.90;;;;;;5129325;27;20652;-81
2022/12/31 07:17:35;;;;;;;21.40;13.60;;;8.50;99.90;;;;;;5094382;28;20219;-81
2022/12/31 07:20:24;;;;;;;20.30;13.80;;;8.50;99.90;;;;;;5102165;27;20597;-81
2022/12/31 07:23:14;;;;;;;20.50;13.90;;;8.60;99.90;;;;;;5104915;27;20229;-81
2022/12/31 07:26:09;;;;;;;21.53;14.50;;;8.50;99.90;;;;;;5107279;27;20251;-82
2022/12/31 07:29:05;;;;;;;22.80;14.47;;;8.60;99.90;;;;;;5102899;27;20217;-81
2022/12/31 07:32:03;;;;;;;22.47;13.60;;;8.60;99.90;;;;;;5095952;27;20367;-81
2022/12/31 07:35:01;;;;;;;22.10;13.73;;;8.70;99.90;;;;;;5091843;28;20242;-81
2022/12/31 07:37:59;;;;;;;20.27;12.73;;;8.60;99.90;;;;;;5096181;27;20237;-81
2022/12/31 07:40:56;;;;;;;20.10;13.50;;;8.70;99.90;;;;;;5126853;27;20226;-83
2022/12/31 07:43:59;;;;;;;20.30;12.90;;;8.70;99.90;;;;;;5091949;27;20229;-82
2022/12/31 07:46:54;;;;;;;18.90;12.67;;;8.70;99.90;;;;;;5109649;27;20222;-81
2022/12/31 07:49:44;;;;;;;20.20;12.80;;;8.80;99.90;;;;;;5106507;27;20267;-82
2022/12/31 07:52:34;;;;;;;18.13;12.50;;;8.80;99.90;;;;;;5104895;27;20221;-83
2022/12/31 07:55:23;;;;;;;18.70;12.13;;;8.90;99.90;;;;;;5095816;28;20221;-81
2022/12/31 07:58:20;;;;;;;19.93;12.03;;;8.90;99.90;;;;;;5102572;27;20271;-81
2022/12/31 08:01:13;;;;;;;16.77;11.97;;;8.90;99.90;;;;;;5106267;27;20218;-82
2022/12/31 08:04:07;;;;;;;18.93;11.83;;;8.90;99.90;;;;;;5100407;27;20219;-82
2022/12/31 08:07:03;;;;;;;16.73;11.70;;;9.00;99.90;;;;;;5084209;28;20315;-81
2022/12/31 08:10:03;;;;;;;17.65;12.15;;;9.00;99.90;;;;;;5100157;28;20579;-82
2022/12/31 08:12:58;;;;;;;17.10;11.90;;;9.10;99.90;;;;;;5102790;27;20748;-81
2022/12/31 08:15:48;;;;;;;18.75;11.48;;;9.10;99.90;;;;;;5100411;27;20232;-83
2022/12/31 08:18:37;;;;;;;17.37;11.80;;;9.10;99.90;;;;;;5095024;27;20717;-83
2022/12/31 08:21:35;;;;;;;18.48;11.48;;;9.10;99.90;;;;;;5105196;27;20228;-82
2022/12/31 08:24:30;;;;;;;17.75;11.93;;;9.20;99.90;;;;;;5097747;27;20219;-81
2022/12/31 08:27:27;;;;;;;17.58;11.15;;;9.20;99.90;;;;;;5100268;27;20208;-81
2022/12/31 08:30:20;;;;;;;18.00;11.63;;;9.20;99.90;;;;;;5088195;27;20220;-81
2022/12/31 08:33:14;;;;;;;16.13;11.30;;;9.30;99.90;;;;;;5097382;28;20230;-80
2022/12/31 08:36:18;;;;;;;19.55;11.15;;;9.30;99.90;;;;;;5105225;27;20955;-82
2022/12/31 08:39:17;;;;;;;15.73;10.38;;;9.40;99.90;;;;;;5092196;28;20280;-81
2022/12/31 08:42:19;;;;;;;17.95;11.15;;;9.40;99.90;;;;;;5095242;27;20757;-81
2022/12/31 08:45:18;;;;;;;15.77;10.15;;;9.50;99.90;;;;;;5093450;28;20211;-82
2022/12/31 08:48:19;;;;;;;18.08;10.18;;;9.50;99.90;;;;;;5085165;28;20232;-82
2022/12/31 08:51:14;;;;;;;16.77;10.20;;;9.50;99.90;;;;;;5091763;28;20222;-82
2022/12/31 08:54:04;;;;;;;15.40;10.50;;;9.50;99.90;;;;;;5101784;28;20226;-81
2022/12/31 08:57:09;;;;;;;14.05;9.50;;;9.60;99.90;;;;;;5115072;27;20250;-81
2022/12/31 09:00:05;;;;;;;13.73;9.60;;;9.60;99.90;;;;;;5095211;28;20240;-81
2022/12/31 09:03:15;;;;;;;12.10;9.23;;;9.70;99.90;;;;;;5097251;27;20585;-82
2022/12/31 09:06:13;;;;;;;14.40;9.13;;;9.80;99.90;;;;;;5097550;27;20229;-81
2022/12/31 09:09:10;;;;;;;12.85;8.73;;;9.90;99.90;;;;;;5101946;28;20307;-82
2022/12/31 09:12:05;;;;;;;14.23;8.57;;;10.00;99.90;;;;;;5094213;28;20785;-81
2022/12/31 09:15:00;;;;;;;11.85;8.65;;;10.10;99.90;;;;;;5109448;27;20231;-81
2022/12/31 09:17:51;;;;;;;14.95;8.10;;;10.20;99.90;;;;;;5095410;27;20965;-82
2022/12/31 09:20:41;;;;;;;13.10;8.35;;;10.20;99.90;;;;;;5102387;27;20237;-82
2022/12/31 09:23:32;;;;;;;12.05;8.68;;;10.20;99.90;;;;;;5085607;28;20238;-83
2022/12/31 09:26:42;;;;;;;10.98;7.97;;;10.20;99.90;;;;;;5118588;27;20301;-82
2022/12/31 09:29:43;;;;;;;11.80;7.85;;;10.30;99.90;;;;;;5091830;28;20231;-81
2022/12/31 09:32:41;;;;;;;14.75;9.13;;;10.30;99.90;;;;;;5103973;27;20219;-81
2022/12/31 09:35:36;;;;;;;12.38;8.27;;;10.40;99.90;;;;;;5099769;27;20215;-81
2022/12/31 09:38:31;;;;;;;12.23;7.80;;;10.40;99.90;;;;;;5094896;27;20264;-82
2022/12/31 09:41:45;;;;;;;11.27;7.90;;;10.40;99.90;;;;;;5093488;28;20219;-82
2022/12/31 09:45:06;;;;;;;13.60;7.93;;;10.40;99.90;;;;;;5098668;27;20223;-82
2022/12/31 09:48:45;;;;;;;12.32;8.38;;;10.40;99.90;;;;;;5102211;27;20235;-81
2022/12/31 09:51:43;;;;;;;9.93;7.53;;;10.40;99.90;;;;;;5001847;28;20237;-81
2022/12/31 09:54:46;;;;;;;11.98;8.13;;;10.50;99.90;;;;;;5005330;28;20237;-81
2022/12/31 09:57:40;;;;;;;10.85;7.43;;;10.50;99.90;;;;;;5102471;27;20222;-82
2022/12/31 10:00:38;;;;;;;13.57;8.05;;;10.50;99.90;;;;;;5095947;27;20207;-81
2022/12/31 10:04:05;;;;;;;11.05;7.82;;;10.50;99.90;;;;;;5093671;28;20288;-81
2022/12/31 10:07:06;;;;;;;11.55;8.10;;;10.50;99.90;;;;;;5096167;27;20233;-81
2022/12/31 10:10:18;;;;;;;11.82;8.60;;;10.50;99.90;;;;;;5096367;28;20214;-81
2022/12/31 10:13:36;;;;;;;12.80;8.13;;;10.50;99.90;;;;;;5086187;28;20227;-81
2022/12/31 10:16:55;;;;;;;12.95;7.97;;;10.50;99.90;;;;;;5077890;27;20219;-81
2022/12/31 10:20:19;;;;;;;11.20;7.78;;;10.50;99.90;;;;;;5106017;27;20742;-82
2022/12/31 10:23:26;;;;;;;10.68;7.78;;;10.60;99.90;;;;;;5097615;28;20716;-81
2022/12/31 10:26:35;;;;;;;13.23;7.97;;;10.70;99.90;;;;;;5099140;27;20214;-82
2022/12/31 10:29:38;;;;;;;11.38;7.47;;;10.80;99.90;;;;;;5101409;27;20658;-82
2022/12/31 10:32:40;;;;;;;9.93;7.65;;;10.90;99.90;;;;;;5098210;27;20717;-81
2022/12/31 10:35:36;;;;;;;11.70;7.38;;;10.90;99.90;;;;;;5087372;27;20227;-82
2022/12/31 10:38:34;;;;;;;10.25;7.13;;;10.90;99.90;;;;;;5094489;27;20227;-82
2022/12/31 10:42:01;;;;;;;10.02;7.20;;;11.00;99.90;;;;;;5100019;27;20260;-81
2022/12/31 10:45:35;;;;;;;9.60;7.03;;;11.10;99.90;;;;;;5091751;28;20725;-82
2022/12/31 10:49:08;;;;;;;12.55;6.68;;;11.20;99.90;;;;;;5096767;27;20302;-82
2022/12/31 10:52:23;;;;;;;12.05;7.07;;;11.20;99.90;;;;;;5056953;28;20240;-82
2022/12/31 10:56:07;;;;;;;12.77;7.15;;;11.30;99.90;;;;;;5099397;27;20231;-82
2022/12/31 10:59:25;;;;;;;11.82;6.95;;;11.30;99.90;;;;;;5092948;27;20241;-81
2022/12/31 11:02:38;;;;;;;9.65;6.40;;;11.30;99.90;;;;;;5100593;27;20299;-82
2022/12/31 11:05:56;;;;;;;10.98;7.03;;;11.40;99.90;;;;;;5092093;27;20230;-81
2022/12/31 11:09:12;;;;;;;9.48;6.78;;;11.40;99.90;;;;;;5102118;27;20309;-81
2022/12/31 11:12:10;;;;;;;10.05;6.47;;;11.50;99.90;;;;;;5123618;27;20264;-81
2022/12/31 11:15:17;;;;;;;9.32;7.18;;;11.50;99.90;;;;;;5093390;28;21061;-81
2022/12/31 11:18:15;;;;;;;9.35;6.55;;;11.50;99.90;;;;;;5101191;27;20296;-81
2022/12/31 11:21:19;;;;;;;9.68;6.38;;;11.50;99.90;;;;;;5096415;28;20214;-82
2022/12/31 11:24:31;;;;;;;11.43;6.60;;;11.50;99.90;;;;;;5105235;28;20265;-82
2022/12/31 11:27:33;;;;;;;10.35;6.18;;;11.60;99.90;;;;;;5104316;27;20222;-82
2022/12/31 11:30:27;;;;;;;9.43;6.30;;;11.70;99.90;;;;;;5122228;27;20221;-81
2022/12/31 11:33:33;;;;;;;9.25;6.13;;;11.60;99.90;;;;;;5100299;27;20579;-82
2022/12/31 11:36:31;;;;;;;9.70;6.25;;;11.60;99.90;;;;;;5105642;28;20215;-83
2022/12/31 11:39:34;;;;;;;8.38;6.13;;;11.60;99.90;;;;;;5099303;27;20927;-81
2022/12/31 11:42:32;;;;;;;11.02;6.45;;;11.60;99.90;;;;;;5101344;27;20219;-80
2022/12/31 11:45:39;;;;;;;9.95;6.43;;;11.70;99.90;;;;;;5105150;27;20277;-79
2022/12/31 11:48:45;;;;;;;9.13;6.45;;;11.70;99.90;;;;;;5103855;27;20368;-81
2022/12/31 11:51:47;;;;;;;9.65;6.35;;;11.80;99.90;;;;;;5107550;28;20229;-80
2022/12/31 11:54:49;;;;;;;10.60;5.93;;;11.80;99.90;;;;;;5105026;28;20797;-81
2022/12/31 11:57:40;;;;;;;9.57;6.35;;;11.90;99.90;;;;;;5099127;27;20215;-81
2022/12/31 12:00:32;;;;;;;8.15;5.93;;;11.80;99.90;;;;;;5094131;27;20258;-81
2022/12/31 12:03:21;;;;;;;8.15;6.00;;;11.90;99.90;;;;;;5096930;27;20265;-81
2022/12/31 12:06:15;;;;;;;7.65;5.45;;;11.90;99.90;;;;;;5087938;28;20227;-81
2022/12/31 12:09:07;;;;;;;9.95;5.97;;;11.90;99.90;;;;;;5106707;27;20922;-80
2022/12/31 12:12:01;;;;;;;6.95;5.20;;;12.00;99.90;;;;;;5107129;27;20911;-82
2022/12/31 12:14:53;;;;;;;9.77;5.57;;;12.00;99.90;;;;;;5105105;28;20242;-81
2022/12/31 12:17:42;;;;;;;8.52;5.60;;;12.10;99.90;;;;;;5128052;27;20233;-80
2022/12/31 12:20:33;;;;;;;7.15;5.38;;;12.20;99.90;;;;;;5101937;27;20276;-82
2022/12/31 12:23:25;;;;;;;7.68;5.43;;;12.20;99.90;;;;;;5104642;27;20510;-82
2022/12/31 12:26:28;;;;;;;7.82;5.38;;;12.30;99.90;;;;;;5102923;28;20210;-82
2022/12/31 12:29:19;;;;;;;6.55;4.90;;;12.30;99.90;;;;;;5099281;27;20777;-81
2022/12/31 12:32:16;;;;;;;8.15;4.90;;;12.30;99.90;;;;;;5097357;27;20238;-80
2022/12/31 12:35:16;;;;;;;9.30;5.35;;;12.30;99.90;;;;;;5126888;27;21147;-82
2022/12/31 12:38:07;;;;;;;9.15;5.75;;;12.30;99.90;;;;;;5101414;27;20219;-81
2022/12/31 12:41:00;;;;;;;8.15;5.70;;;12.20;99.90;;;;;;5097751;28;20219;-83
2022/12/31 12:43:50;;;;;;;9.20;6.00;;;12.10;99.90;;;;;;5096481;28;20676;-82
2022/12/31 12:46:44;;;;;;;7.60;5.40;;;12.10;99.90;;;;;;5103370;27;20229;-81
2022/12/31 12:49:40;;;;;;;7.97;5.50;;;12.00;99.90;;;;;;5096027;28;20276;-82
2022/12/31 12:52:45;;;;;;;10.73;5.90;;;12.00;99.90;;;;;;5103395;27;20880;-82
2022/12/31 12:55:42;;;;;;;8.05;5.57;;;12.00;99.90;;;;;;5087248;28;20239;-81
2022/12/31 12:58:42;;;;;;;9.68;5.90;;;12.00;99.90;;;;;;5096832;27;20237;-82
2022/12/31 13:01:40;;;;;;;9.70;5.45;;;12.00;99.90;;;;;;5119254;27;20230;-81
2022/12/31 13:04:47;;;;;;;7.07;5.20;;;12.10;99.90;;;;;;5122985;27;20222;-81
2022/12/31 13:07:46;;;;;;;10.25;6.40;;;12.10;99.90;;;;;;5098024;28;20218;-81
2022/12/31 13:11:04;;;;;;;7.72;5.28;;;12.10;99.90;;;;;;5095429;27;20211;-82
2022/12/31 13:14:00;;;;;;;8.15;5.35;;;12.10;99.90;;;;;;5092687;27;20219;-81
2022/12/31 13:16:59;;;;;;;7.53;5.30;;;12.10;99.90;;;;;;5090683;27;20219;-82
2022/12/31 13:19:56;;;;;;;7.43;5.70;;;12.10;99.90;;;;;;5102997;27;20234;-82
2022/12/31 13:22:52;;;;;;;8.80;5.75;;;12.10;99.90;;;;;;5089446;27;20231;-82
2022/12/31 13:25:56;;;;;;;8.82;5.60;;;12.10;99.90;;;;;;5120337;27;20839;-82
2022/12/31 13:28:47;;;;;;;9.50;6.03;;;12.10;99.90;;;;;;5096025;27;20223;-81
2022/12/31 13:31:40;;;;;;;9.77;6.15;;;12.10;99.90;;;;;;5093063;27;20578;-81
2022/12/31 13:34:33;;;;;;;8.50;5.60;;;12.20;99.90;;;;;;5102599;27;20215;-80
2022/12/31 13:37:28;;;;;;;8.23;5.78;;;12.10;99.90;;;;;;5094572;27;20233;-81
2022/12/31 13:40:22;;;;;;;9.82;5.95;;;12.20;99.90;;;;;;5125667;27;20225;-80
2022/12/31 13:43:18;;;;;;;9.40;6.05;;;12.20;99.90;;;;;;5118708;27;20328;-81
2022/12/31 13:46:17;;;;;;;8.35;5.85;;;12.20;99.90;;;;;;5127117;27;20249;-82
2022/12/31 13:49:16;;;;;;;9.50;6.45;;;12.20;99.90;;;;;;5097571;28;20223;-81
2022/12/31 13:52:19;;;;;;;11.00;5.75;;;12.20;99.90;;;;;;5089658;28;20227;-82
2022/12/31 13:55:14;;;;;;;9.70;6.50;;;12.30;99.90;;;;;;5134162;27;20210;-81
2022/12/31 13:58:09;;;;;;;7.38;5.63;;;12.30;99.90;;;;;;5125519;27;20239;-82
2022/12/31 14:01:05;;;;;;;9.77;5.93;;;12.30;99.90;;;;;;5101934;28;20235;-82
2022/12/31 14:03:59;;;;;;;7.35;5.20;;;12.30;99.90;;;;;;5127427;27;20229;-81
2022/12/31 14:06:53;;;;;;;8.73;5.32;;;12.30;99.90;;;;;;5099970;28;20353;-81
2022/12/31 14:09:42;;;;;;;8.93;5.40;;;12.40;99.90;;;;;;5091991;27;20804;-82
2022/12/31 14:12:40;;;;;;;7.57;5.40;;;12.40;99.90;;;;;;5131940;27;20230;-82
2022/12/31 14:15:33;;;;;;;8.50;5.65;;;12.40;99.90;;;;;;5128351;27;20226;-82
2022/12/31 14:18:29;;;;;;;8.88;5.68;;;12.40;99.90;;;;;;5105882;27;20222;-83
2022/12/31 14:21:23;;;;;;;7.63;5.38;;;12.40;99.90;;;;;;5105029;27;20238;-82
2022/12/31 14:24:21;;;;;;;6.85;4.85;;;12.50;99.90;;;;;;5114270;27;20219;-81
2022/12/31 14:27:17;;;;;;;7.88;4.80;;;12.50;99.90;;;;;;5103465;28;20630;-81
2022/12/31 14:30:13;;;;;;;9.77;5.38;;;12.60;99.90;;;;;;5098050;28;20765;-82
2022/12/31 14:33:14;;;;;;;7.60;5.22;;;12.60;99.90;;;;;;5101741;27;20349;-80
2022/12/31 14:36:17;;;;;;;8.10;5.22;;;12.60;99.90;;;;;;5114910;27;20633;-81
2022/12/31 14:39:26;;;;;;;7.65;5.15;;;12.60;99.90;;;;;;5096206;28;20218;-81
2022/12/31 14:42:24;;;;;;;6.75;4.78;;;12.70;99.90;;;;;;5123360;27;20314;-81
2022/12/31 14:45:41;;;;;;;7.13;4.82;;;12.70;99.90;;;;;;5098588;27;20234;-81
2022/12/31 14:48:44;;;;;;;8.10;4.80;;;12.70;99.90;;;;;;5090428;28;20254;-81
2022/12/31 14:51:35;;;;;;;8.43;4.80;;;12.80;99.90;;;;;;5104472;27;20305;-81
2022/12/31 14:54:28;;;;;;;7.15;5.20;;;12.80;99.90;;;;;;5096069;28;20953;-81
2022/12/31 14:57:25;;;;;;;7.85;5.28;;;12.80;99.90;;;;;;5097192;27;20262;-81
2022/12/31 15:00:33;;;;;;;6.28;4.70;;;12.80;99.90;;;;;;5099625;27;20226;-81
2022/12/31 15:03:26;;;;;;;6.57;4.57;;;12.80;99.90;;;;;;5089427;27;20266;-81
2022/12/31 15:06:40;;;;;;;6.07;4.72;;;12.90;99.90;;;;;;5093965;27;20223;-81
2022/12/31 15:10:08;;;;;;;6.93;4.68;;;12.90;99.90;;;;;;5112458;27;20214;-82
2022/12/31 15:13:03;;;;;;;6.18;4.50;;;13.00;99.90;;;;;;5103526;27;20744;-82
2022/12/31 15:16:18;;;;;;;8.02;5.00;;;13.00;99.90;;;;;;5105780;27;21052;-82
2022/12/31 15:19:33;;;;;;;9.13;4.65;;;13.10;99.90;;;;;;5093936;28;20230;-81
2022/12/31 15:22:37;;;;;;;7.93;5.50;;;13.10;99.90;;;;;;5116112;27;21034;-81
2022/12/31 15:25:32;;;;;;;6.63;4.70;;;13.10;99.90;;;;;;5130772;27;20351;-82
2022/12/31 15:28:33;;;;;;;6.03;4.68;;;13.10;99.90;;;;;;5099551;27;20218;-81